Terminal Aerodrome Forecast
Issued by NWS

Home | Current Version | Previous Version | Graphics & Text | Print | Product List | Glossary On
Versions: 1 2 3 4 5 6 7 8 9 10 11 12
973
FTUS43 KICT 062321
TAFHUT
TAF
KHUT 062321Z 0700/0724 21008KT P6SM FEW250
     FM070900 28009KT P6SM FEW250
     FM071100 33007KT P6SM SCT250
     FM071600 33014KT P6SM SCT250
     FM071800 32020G27KT P6SM SCT250=

USA.gov is the U.S. government's official web portal to all federal, state and local government web resources and services.